createdAt,value
2019-01-08T00:07:31.926Z,-2.80
2019-01-08T00:17:37.251Z,-3.00
2019-01-08T00:27:42.682Z,-3.10
2019-01-08T00:37:48.006Z,-3.10
2019-01-08T00:47:53.338Z,-3.20
2019-01-08T00:57:58.812Z,-3.40
2019-01-08T01:08:04.164Z,-3.50
2019-01-08T01:18:09.546Z,-3.50
2019-01-08T01:28:14.992Z,-3.60
2019-01-08T01:38:20.428Z,-3.60
2019-01-08T01:48:25.760Z,-3.70
2019-01-08T01:58:31.058Z,-3.80
2019-01-08T02:08:36.347Z,-3.70
2019-01-08T02:18:41.608Z,-3.80
2019-01-08T02:28:46.962Z,-3.70
2019-01-08T02:38:52.380Z,-3.70
2019-01-08T02:48:57.699Z,-3.80
2019-01-08T02:59:03.082Z,-3.80
2019-01-08T03:09:08.394Z,-3.80
2019-01-08T03:19:13.776Z,-3.80
2019-01-08T03:29:19.087Z,-3.70
2019-01-08T03:39:24.429Z,-3.70
2019-01-08T03:49:29.761Z,-3.50
2019-01-08T03:59:41.911Z,-3.10
2019-01-08T04:09:42.052Z,-3.00
2019-01-08T04:19:47.354Z,-3.00
2019-01-08T04:29:52.683Z,-2.90
2019-01-08T04:39:57.997Z,-2.80
2019-01-08T04:50:03.312Z,-2.70
2019-01-08T05:00:09.182Z,-2.60
2019-01-08T05:10:14.606Z,-2.50
2019-01-08T05:20:19.891Z,-2.40
2019-01-08T05:30:25.336Z,-2.10
2019-01-08T05:40:30.651Z,-2.00
2019-01-08T05:50:36.058Z,-2.10
2019-01-08T06:00:41.365Z,-2.00
2019-01-08T06:10:46.796Z,-1.70
2019-01-08T06:20:52.480Z,-1.60
2019-01-08T06:30:57.804Z,-1.50
2019-01-08T06:41:03.152Z,-1.50
2019-01-08T06:51:08.504Z,-1.50
2019-01-08T07:01:13.925Z,-1.30
2019-01-08T07:11:19.270Z,-1.20
2019-01-08T07:21:24.632Z,-0.80
2019-01-08T07:31:31.207Z,-0.80
2019-01-08T07:41:36.672Z,-0.70
2019-01-08T07:51:42.219Z,-0.60
2019-01-08T08:01:47.834Z,-0.60
2019-01-08T08:11:53.184Z,-0.80
2019-01-08T08:21:58.602Z,-0.80
2019-01-08T08:32:05.402Z,-0.90
2019-01-08T08:42:10.988Z,-0.70
2019-01-08T08:52:16.758Z,-0.50
2019-01-08T09:02:22.493Z,-0.40
2019-01-08T09:12:27.818Z,-0.40
2019-01-08T09:22:33.311Z,-0.30
2019-01-08T09:32:38.744Z,-0.10
2019-01-08T09:42:44.220Z,0.20
2019-01-08T09:52:49.551Z,0.30
2019-01-08T10:02:55.020Z,0.30
2019-01-08T10:13:00.343Z,0.20
2019-01-08T10:23:10.028Z,0.30
2019-01-08T10:33:12.851Z,0.40
2019-01-08T10:43:18.270Z,0.40
2019-01-08T10:53:23.581Z,0.70
2019-01-08T11:03:28.938Z,0.60
2019-01-08T11:13:34.286Z,0.50
2019-01-08T11:23:39.674Z,0.50
2019-01-08T11:33:45.290Z,0.70
2019-01-08T11:43:50.599Z,0.70
2019-01-08T11:53:56.137Z,0.70
2019-01-08T12:04:01.659Z,0.80
2019-01-08T12:14:07.045Z,0.90
2019-01-08T12:24:12.599Z,0.90
2019-01-08T12:34:18.190Z,0.90
2019-01-08T12:44:24.075Z,0.80
2019-01-08T12:54:29.317Z,0.80
2019-01-08T13:04:34.857Z,0.90
2019-01-08T13:14:40.276Z,0.90
2019-01-08T13:24:45.564Z,0.80
2019-01-08T13:34:51.000Z,1.00
2019-01-08T13:44:56.490Z,1.10
2019-01-08T13:55:02.072Z,1.10
2019-01-08T14:05:08.276Z,1.10
2019-01-08T14:15:13.610Z,1.00
2019-01-08T14:25:19.276Z,1.00
2019-01-08T14:35:24.694Z,1.10
2019-01-08T14:45:30.230Z,1.20
2019-01-08T14:55:36.043Z,1.30
2019-01-08T15:05:42.242Z,1.40
2019-01-08T15:15:48.667Z,1.40
2019-01-08T15:25:56.525Z,1.50
2019-01-08T15:36:02.845Z,1.40
2019-01-08T15:46:10.349Z,1.40
2019-01-08T15:56:15.693Z,1.50
2019-01-08T16:06:20.992Z,1.40
2019-01-08T16:16:26.330Z,1.40
2019-01-08T16:26:31.930Z,1.40
2019-01-08T16:36:37.269Z,1.50
2019-01-08T16:46:43.061Z,1.40
2019-01-08T16:56:48.345Z,1.40
2019-01-08T17:06:53.834Z,1.50
2019-01-08T17:16:59.223Z,1.40
2019-01-08T17:27:04.677Z,1.50
2019-01-08T17:37:10.987Z,1.60
2019-01-08T17:47:16.399Z,1.70
2019-01-08T17:57:21.822Z,1.60
2019-01-08T18:07:27.277Z,1.40
2019-01-08T18:17:32.618Z,1.20
2019-01-08T18:27:37.957Z,1.00
2019-01-08T18:37:43.335Z,0.70
2019-01-08T18:47:48.868Z,0.50
2019-01-08T18:57:54.164Z,0.50
2019-01-08T19:07:59.482Z,0.60
2019-01-08T19:18:04.852Z,0.70
2019-01-08T19:28:10.174Z,0.70
2019-01-08T19:38:15.486Z,0.60
2019-01-08T19:48:20.958Z,0.60
2019-01-08T19:58:26.296Z,0.30
2019-01-08T20:08:31.846Z,0.20
2019-01-08T20:18:45.002Z,0.20
2019-01-08T20:28:45.110Z,0.10
2019-01-08T20:38:50.498Z,0.10
2019-01-08T20:48:55.956Z,-0.10
2019-01-08T23:10:05.714Z,-0.70
2019-01-08T23:40:21.596Z,-0.30
2019-01-08T23:50:26.929Z,-0.30
